createdAt,value
2019-02-17T00:00:01.263Z,97.70
2019-02-17T00:02:29.898Z,97.70
2019-02-17T00:04:58.383Z,97.60
2019-02-17T00:07:26.849Z,97.60
2019-02-17T00:09:55.435Z,97.60
2019-02-17T00:12:23.894Z,97.40
2019-02-17T00:14:52.387Z,97.50
2019-02-17T00:17:21.098Z,97.80
2019-02-17T00:19:49.586Z,97.90
2019-02-17T00:22:18.059Z,97.90
2019-02-17T00:24:46.623Z,97.80
2019-02-17T00:27:15.079Z,97.80
2019-02-17T00:29:43.583Z,97.60
2019-02-17T00:32:12.046Z,97.60
2019-02-17T00:34:40.509Z,97.70
2019-02-17T00:37:09.030Z,97.70
2019-02-17T00:39:37.499Z,97.70
2019-02-17T00:42:06.080Z,97.90
2019-02-17T00:44:34.626Z,97.80
2019-02-17T00:47:03.183Z,97.80
2019-02-17T00:49:31.722Z,97.80
2019-02-17T00:52:00.227Z,97.90
2019-02-17T00:54:28.703Z,97.80
2019-02-17T00:56:57.237Z,97.90
2019-02-17T00:59:25.730Z,97.90
2019-02-17T01:01:54.298Z,97.90
2019-02-17T01:04:22.762Z,98.20
2019-02-17T01:06:51.299Z,98.20
2019-02-17T01:09:19.783Z,98.10
2019-02-17T01:11:48.274Z,98.10
2019-02-17T01:14:17.151Z,98.10
2019-02-17T01:16:45.620Z,98.00
2019-02-17T01:19:14.159Z,98.10
2019-02-17T01:21:42.727Z,98.10
2019-02-17T01:24:11.196Z,98.10
2019-02-17T01:26:39.737Z,98.10
2019-02-17T01:29:08.299Z,98.10
2019-02-17T01:31:36.767Z,98.20
2019-02-17T01:34:10.318Z,98.20
2019-02-17T01:36:59.658Z,98.20
2019-02-17T01:39:28.214Z,98.30
2019-02-17T01:41:56.678Z,98.20
2019-02-17T01:44:25.182Z,98.30
2019-02-17T01:46:53.792Z,98.30
2019-02-17T01:49:22.395Z,98.20
2019-02-17T01:51:50.959Z,98.20
2019-02-17T01:54:19.423Z,98.20
2019-02-17T01:56:47.910Z,98.10
2019-02-17T01:59:16.388Z,98.10
2019-02-17T02:01:48.044Z,98.10
2019-02-17T02:04:16.588Z,98.40
2019-02-17T02:06:45.050Z,98.90
2019-02-17T02:09:13.610Z,98.90
2019-02-17T02:11:42.162Z,98.60
2019-02-17T02:14:10.670Z,98.40
2019-02-17T02:16:39.137Z,98.40
2019-02-17T02:19:07.671Z,98.30
2019-02-17T02:21:36.175Z,98.30
2019-02-17T02:24:04.643Z,98.80
2019-02-17T02:26:33.137Z,98.70
2019-02-17T02:29:01.728Z,98.80
2019-02-17T02:31:30.215Z,98.50
2019-02-17T02:33:58.678Z,98.10
2019-02-17T02:36:27.168Z,98.00
2019-02-17T02:38:55.639Z,97.80
2019-02-17T02:41:34.229Z,97.90
2019-02-17T02:43:54.447Z,98.00
2019-02-17T02:46:22.916Z,98.20
2019-02-17T02:48:51.447Z,98.30
2019-02-17T02:51:22.578Z,98.30
2019-02-17T02:53:51.043Z,98.50
2019-02-17T02:56:19.548Z,98.40
2019-02-17T02:58:48.084Z,98.50
2019-02-17T03:01:16.691Z,98.40
2019-02-17T03:03:46.137Z,98.30
2019-02-17T03:06:16.447Z,98.20
2019-02-17T03:08:45.076Z,98.00
2019-02-17T03:11:13.549Z,98.00
2019-02-17T03:13:42.040Z,98.00
2019-02-17T03:16:10.506Z,98.10
2019-02-17T03:18:39.075Z,98.10
2019-02-17T03:21:07.667Z,98.10
2019-02-17T03:23:36.212Z,98.20
2019-02-17T03:26:04.773Z,98.20
2019-02-17T03:28:33.350Z,98.30
2019-02-17T03:31:01.849Z,98.20
2019-02-17T03:33:30.356Z,98.20
2019-02-17T03:36:18.259Z,98.20
2019-02-17T03:38:46.724Z,98.30
2019-02-17T03:41:15.300Z,98.50
2019-02-17T03:43:43.784Z,98.60
2019-02-17T03:46:12.308Z,98.60
2019-02-17T03:48:40.840Z,98.70
2019-02-17T03:51:09.335Z,98.90
2019-02-17T03:53:37.877Z,99.10
2019-02-17T03:56:06.443Z,99.50
2019-02-17T03:58:34.906Z,99.60
2019-02-17T04:01:03.490Z,99.50
2019-02-17T04:03:31.954Z,99.20
2019-02-17T04:06:00.493Z,98.90
2019-02-17T04:08:29.046Z,98.70
2019-02-17T04:11:00.431Z,98.60
2019-02-17T04:13:29.087Z,98.50
2019-02-17T04:15:57.633Z,98.40
2019-02-17T04:18:26.203Z,98.50
2019-02-17T04:20:54.766Z,98.30
2019-02-17T04:23:42.599Z,98.90
2019-02-17T04:26:11.081Z,99.30
2019-02-17T04:28:39.636Z,99.00
2019-02-17T04:31:08.256Z,99.00
2019-02-17T04:33:36.795Z,99.00
2019-02-17T04:36:05.297Z,98.90
2019-02-17T04:38:33.850Z,98.80
2019-02-17T04:41:02.338Z,98.90
2019-02-17T04:43:30.806Z,99.00
2019-02-17T04:45:59.307Z,99.30
2019-02-17T04:48:27.890Z,99.50
2019-02-17T04:50:56.355Z,99.70
2019-02-17T04:53:24.963Z,99.90
2019-02-17T04:55:53.456Z,99.80
2019-02-17T04:58:21.944Z,99.90
2019-02-17T05:00:50.483Z,99.90
2019-02-17T05:03:19.043Z,99.90
2019-02-17T05:05:47.510Z,99.90
2019-02-17T05:08:15.986Z,99.90
2019-02-17T05:10:44.481Z,99.90
2019-02-17T05:13:13.111Z,99.90
2019-02-17T05:15:41.706Z,99.90
2019-02-17T05:18:10.178Z,99.90
2019-02-17T05:20:38.674Z,99.90
2019-02-17T05:23:07.214Z,99.90
2019-02-17T05:25:35.784Z,99.90
2019-02-17T05:28:04.254Z,99.90
2019-02-17T05:30:32.739Z,99.90
2019-02-17T05:33:01.374Z,99.90
2019-02-17T05:35:29.883Z,99.90
2019-02-17T05:37:58.433Z,99.90
2019-02-17T05:40:26.975Z,99.90
2019-02-17T05:42:55.471Z,99.90
2019-02-17T05:45:23.940Z,99.90
2019-02-17T05:47:52.431Z,99.80
2019-02-17T05:50:20.976Z,99.60
2019-02-17T05:52:49.581Z,99.60
2019-02-17T05:55:18.123Z,99.40
2019-02-17T05:57:46.587Z,99.40
2019-02-17T06:00:16.552Z,99.40
2019-02-17T06:02:45.122Z,99.40
2019-02-17T06:05:13.799Z,99.50
2019-02-17T06:07:42.291Z,99.50
2019-02-17T06:10:10.858Z,99.60
2019-02-17T06:12:39.494Z,99.70
2019-02-17T06:15:08.207Z,99.80
2019-02-17T06:17:36.734Z,99.80
2019-02-17T06:20:08.681Z,99.80
2019-02-17T06:22:37.151Z,99.90
2019-02-17T06:25:06.060Z,99.80
2019-02-17T06:27:34.556Z,99.90
2019-02-17T06:30:03.532Z,99.80
2019-02-17T06:32:32.082Z,99.80
2019-02-17T06:35:00.575Z,99.70
2019-02-17T06:37:29.075Z,99.70
2019-02-17T06:39:57.543Z,99.70
2019-02-17T06:42:26.047Z,99.70
2019-02-17T06:44:54.594Z,99.70
2019-02-17T06:47:24.803Z,99.70
2019-02-17T06:49:53.442Z,99.60
2019-02-17T06:52:21.995Z,99.60
2019-02-17T06:54:52.198Z,99.60
2019-02-17T06:57:22.379Z,99.60
2019-02-17T06:59:52.519Z,99.80
2019-02-17T07:02:20.979Z,99.80
2019-02-17T07:05:06.186Z,99.90
2019-02-17T07:07:34.715Z,99.70
2019-02-17T07:10:03.191Z,99.80
2019-02-17T07:12:31.683Z,99.80
2019-02-17T07:15:00.298Z,99.80
2019-02-17T07:17:28.914Z,99.80
2019-02-17T07:19:57.403Z,99.50
2019-02-17T07:22:25.866Z,99.40
2019-02-17T07:24:54.375Z,99.10
2019-02-17T07:27:22.913Z,98.60
2019-02-17T07:29:51.455Z,98.40
2019-02-17T07:32:19.977Z,98.90
2019-02-17T07:34:48.520Z,98.90
2019-02-17T07:37:19.298Z,98.30
2019-02-17T07:39:47.263Z,98.10
2019-02-17T07:42:15.755Z,97.70
2019-02-17T07:44:44.254Z,97.40
2019-02-17T07:47:12.815Z,97.20
2019-02-17T07:49:41.303Z,97.00
2019-02-17T07:52:09.768Z,96.80
2019-02-17T07:54:38.258Z,96.70
2019-02-17T07:57:06.738Z,96.30
2019-02-17T07:59:35.239Z,96.60
2019-02-17T08:02:03.855Z,96.90
2019-02-17T08:04:32.328Z,96.80
2019-02-17T08:07:00.818Z,96.90
2019-02-17T08:09:29.381Z,94.90
2019-02-17T08:11:57.842Z,94.60
2019-02-17T08:14:26.403Z,93.40
2019-02-17T08:16:54.873Z,92.40
2019-02-17T08:19:23.453Z,92.20
2019-02-17T08:21:51.979Z,91.40
2019-02-17T08:24:20.562Z,85.30
2019-02-17T08:26:49.035Z,83.50
2019-02-17T08:29:17.570Z,75.70
2019-02-17T08:31:55.493Z,69.20
2019-02-17T08:34:16.269Z,67.90
2019-02-17T08:36:44.910Z,66.40
2019-02-17T08:39:13.386Z,64.60
2019-02-17T08:41:42.021Z,62.40
2019-02-17T08:44:10.564Z,61.00
2019-02-17T08:46:39.201Z,59.80
2019-02-17T08:49:07.695Z,57.80
2019-02-17T08:51:36.266Z,56.00
2019-02-17T08:54:04.809Z,56.10
2019-02-17T08:56:33.375Z,54.00
2019-02-17T08:59:01.870Z,53.40
2019-02-17T09:01:30.338Z,54.80
2019-02-17T09:03:58.858Z,53.00
2019-02-17T09:06:27.330Z,54.00
2019-02-17T09:08:55.830Z,55.30
2019-02-17T09:11:24.392Z,56.10
2019-02-17T09:13:52.959Z,55.30
2019-02-17T09:16:21.508Z,52.00
2019-02-17T09:18:49.974Z,52.00
2019-02-17T09:21:18.468Z,50.30
2019-02-17T09:23:47.022Z,48.50
2019-02-17T09:26:15.606Z,46.80
2019-02-17T09:28:44.075Z,46.60
2019-02-17T09:31:12.567Z,45.80
2019-02-17T09:33:41.039Z,44.80
2019-02-17T09:36:09.531Z,44.30
2019-02-17T09:38:38.027Z,44.00
2019-02-17T09:41:06.519Z,43.10
2019-02-17T09:43:34.993Z,42.90
2019-02-17T09:46:03.538Z,42.50
2019-02-17T09:48:32.050Z,41.60
2019-02-17T09:51:00.514Z,41.70
2019-02-17T09:53:28.987Z,41.80
2019-02-17T09:55:58.156Z,41.60
2019-02-17T09:58:26.722Z,42.70
2019-02-17T10:00:55.194Z,41.80
2019-02-17T10:03:23.706Z,41.20
2019-02-17T10:05:52.177Z,40.10
2019-02-17T10:08:20.883Z,40.40
2019-02-17T10:10:49.378Z,40.60
2019-02-17T10:13:17.950Z,40.20
2019-02-17T10:15:46.596Z,39.20
2019-02-17T10:18:15.166Z,38.80
2019-02-17T10:20:43.706Z,38.20
2019-02-17T10:23:12.203Z,38.30
2019-02-17T10:25:40.742Z,37.90
2019-02-17T10:28:09.234Z,37.60
2019-02-17T10:30:37.835Z,36.90
2019-02-17T10:33:06.316Z,36.60
2019-02-17T10:35:34.882Z,35.90
2019-02-17T10:38:03.458Z,34.00
2019-02-17T10:40:31.931Z,33.60
2019-02-17T10:43:00.578Z,33.60
2019-02-17T10:45:29.158Z,33.20
2019-02-17T10:47:57.652Z,31.80
2019-02-17T10:50:26.163Z,31.60
2019-02-17T10:52:54.631Z,32.80
2019-02-17T10:55:23.119Z,31.70
2019-02-17T10:57:51.662Z,32.00
2019-02-17T11:00:22.349Z,32.50
2019-02-17T11:02:50.981Z,32.60
2019-02-17T11:05:19.567Z,31.90
2019-02-17T11:07:55.784Z,34.60
2019-02-17T11:10:24.647Z,36.60
2019-02-17T11:12:53.576Z,38.10
2019-02-17T11:15:22.642Z,35.80
2019-02-17T11:17:51.214Z,35.80
2019-02-17T11:20:19.682Z,36.80
2019-02-17T11:22:48.179Z,36.20
2019-02-17T11:25:16.649Z,38.60
2019-02-17T11:27:45.240Z,38.90
2019-02-17T11:30:16.804Z,39.70
2019-02-17T11:32:45.378Z,43.30
2019-02-17T11:35:14.176Z,45.70
2019-02-17T11:37:44.998Z,47.10
2019-02-17T11:40:13.430Z,48.10
2019-02-17T11:42:42.250Z,48.50
2019-02-17T11:45:18.463Z,49.00
2019-02-17T11:47:47.748Z,50.70
2019-02-17T11:50:16.313Z,51.60
2019-02-17T11:52:44.856Z,53.10
2019-02-17T11:55:15.560Z,53.40
2019-02-17T11:57:44.031Z,52.60
2019-02-17T12:00:18.856Z,52.20
2019-02-17T12:02:47.441Z,52.00
2019-02-17T12:05:16.167Z,52.70
2019-02-17T12:07:44.778Z,51.90
2019-02-17T12:10:13.395Z,53.10
2019-02-17T12:12:41.999Z,53.60
2019-02-17T12:15:12.832Z,52.70
2019-02-17T12:17:41.516Z,54.40
2019-02-17T12:20:17.190Z,54.10
2019-02-17T12:22:46.175Z,55.20
2019-02-17T12:25:14.671Z,55.70
2019-02-17T12:27:44.907Z,56.10
2019-02-17T12:30:13.914Z,54.90
2019-02-17T12:32:42.383Z,54.80
2019-02-17T12:35:10.872Z,55.80
2019-02-17T12:37:39.370Z,56.10
2019-02-17T12:40:10.456Z,55.00
2019-02-17T12:42:38.963Z,54.30
2019-02-17T12:45:10.447Z,53.50
2019-02-17T12:47:38.979Z,54.80
2019-02-17T12:50:10.311Z,54.30
2019-02-17T12:52:46.826Z,55.00
2019-02-17T12:55:09.654Z,54.80
2019-02-17T12:57:38.154Z,54.60
2019-02-17T13:00:13.055Z,55.40
2019-02-17T13:02:41.523Z,55.70
2019-02-17T13:05:10.656Z,53.30
2019-02-17T13:07:39.199Z,53.20
2019-02-17T13:10:11.762Z,53.90
2019-02-17T13:12:40.312Z,53.20
2019-02-17T13:15:11.516Z,54.20
2019-02-17T13:17:40.062Z,54.30
2019-02-17T13:20:16.327Z,53.40
2019-02-17T13:22:44.872Z,53.60
2019-02-17T13:25:15.623Z,54.80
2019-02-17T13:27:44.182Z,54.30
2019-02-17T13:30:18.428Z,54.20
2019-02-17T13:32:47.124Z,54.40
2019-02-17T13:35:15.706Z,54.40
2019-02-17T13:37:44.299Z,53.60
2019-02-17T13:40:14.083Z,52.60
2019-02-17T13:42:42.735Z,52.20
2019-02-17T13:45:18.315Z,51.90
2019-02-17T13:47:47.032Z,52.20
2019-02-17T13:50:18.527Z,52.20
2019-02-17T13:52:47.024Z,51.50
2019-02-17T13:55:15.587Z,51.10
2019-02-17T13:57:44.059Z,51.70
2019-02-17T14:00:14.968Z,51.70
2019-02-17T14:02:43.434Z,51.80
2019-02-17T14:05:12.003Z,51.80
2019-02-17T14:07:40.471Z,52.20
2019-02-17T14:10:13.631Z,52.50
2019-02-17T14:12:42.282Z,53.40
2019-02-17T14:15:18.750Z,52.60
2019-02-17T14:17:47.232Z,52.30
2019-02-17T14:20:15.774Z,52.30
2019-02-17T14:22:44.262Z,52.10
2019-02-17T14:25:12.871Z,51.10
2019-02-17T14:27:41.527Z,51.00
2019-02-17T14:30:18.539Z,51.60
2019-02-17T14:32:47.039Z,51.80
2019-02-17T14:35:15.507Z,52.00
2019-02-17T14:37:44.056Z,52.10
2019-02-17T14:40:13.661Z,51.60
2019-02-17T14:42:42.338Z,51.80
2019-02-17T14:45:12.474Z,51.40
2019-02-17T14:47:40.948Z,51.10
2019-02-17T14:50:11.242Z,51.50
2019-02-17T14:52:39.863Z,51.90
2019-02-17T14:55:09.852Z,51.70
2019-02-17T14:57:38.318Z,51.60
2019-02-17T15:00:14.879Z,52.10
2019-02-17T15:02:43.429Z,52.70
2019-02-17T15:05:12.110Z,52.90
2019-02-17T15:07:40.605Z,53.80
2019-02-17T15:10:10.990Z,53.80
2019-02-17T15:12:39.749Z,53.80
2019-02-17T15:15:10.832Z,54.00
2019-02-17T15:17:39.383Z,54.20
2019-02-17T15:20:13.198Z,54.50
2019-02-17T15:22:41.826Z,54.40
2019-02-17T15:25:12.046Z,54.40
2019-02-17T15:27:40.615Z,54.30
2019-02-17T15:30:14.208Z,54.80
2019-02-17T15:32:42.794Z,54.90
2019-02-17T15:35:11.499Z,55.30
2019-02-17T15:37:39.988Z,55.20
2019-02-17T15:40:15.211Z,55.10
2019-02-17T15:42:43.711Z,55.60
2019-02-17T15:45:13.458Z,55.90
2019-02-17T15:47:41.936Z,56.10
2019-02-17T15:50:14.770Z,56.60
2019-02-17T15:52:43.423Z,56.50
2019-02-17T15:55:13.206Z,57.00
2019-02-17T15:57:41.822Z,57.30
2019-02-17T16:00:16.200Z,57.20
2019-02-17T16:02:44.776Z,57.30
2019-02-17T16:05:13.499Z,57.80
2019-02-17T16:07:41.988Z,58.20
2019-02-17T16:10:12.848Z,58.40
2019-02-17T16:12:41.494Z,59.30
2019-02-17T16:15:18.839Z,60.10
2019-02-17T16:17:47.417Z,60.60
2019-02-17T16:20:15.958Z,60.20
2019-02-17T16:22:44.476Z,60.10
2019-02-17T16:25:13.187Z,60.90
2019-02-17T16:27:41.758Z,60.80
2019-02-17T16:30:18.446Z,61.10
2019-02-17T16:32:47.014Z,61.90
2019-02-17T16:35:15.559Z,63.00
2019-02-17T16:37:44.227Z,63.30
2019-02-17T16:40:19.287Z,63.90
2019-02-17T16:42:48.052Z,64.30
2019-02-17T16:45:16.607Z,65.90
2019-02-17T16:47:45.714Z,65.60
2019-02-17T16:50:26.038Z,66.20
2019-02-17T16:52:54.547Z,66.60
2019-02-17T16:55:23.167Z,66.80
2019-02-17T16:57:51.758Z,67.60
2019-02-17T17:00:23.955Z,68.50
2019-02-17T17:02:57.044Z,68.80
2019-02-17T17:05:26.089Z,69.30
2019-02-17T17:07:54.693Z,70.10
2019-02-17T17:10:23.371Z,70.50
2019-02-17T17:12:51.938Z,70.60
2019-02-17T17:15:20.737Z,70.00
2019-02-17T17:17:49.422Z,69.60
2019-02-17T17:20:19.628Z,69.70
2019-02-17T17:22:48.377Z,70.00
2019-02-17T17:25:17.054Z,70.50
2019-02-17T17:27:45.614Z,71.30
2019-02-17T17:30:18.372Z,72.10
2019-02-17T17:32:47.080Z,72.70
2019-02-17T17:35:15.695Z,72.90
2019-02-17T17:37:44.251Z,73.50
2019-02-17T17:40:19.072Z,74.20
2019-02-17T17:42:48.022Z,75.40
2019-02-17T17:45:18.196Z,76.40
2019-02-17T17:47:46.738Z,76.30
2019-02-17T17:50:16.239Z,76.60
2019-02-17T17:52:44.711Z,77.30
2019-02-17T17:55:13.866Z,77.20
2019-02-17T17:57:42.402Z,77.20
2019-02-17T18:00:26.100Z,77.20
2019-02-17T18:02:54.776Z,77.60
2019-02-17T18:05:23.324Z,77.90
2019-02-17T18:07:51.815Z,78.80
2019-02-17T18:10:20.309Z,79.30
2019-02-17T18:12:48.806Z,79.50
2019-02-17T18:15:19.679Z,79.20
2019-02-17T18:17:54.307Z,79.50
2019-02-17T18:20:18.426Z,79.40
2019-02-17T18:22:47.067Z,79.50
2019-02-17T18:25:16.094Z,79.20
2019-02-17T18:27:44.627Z,79.00
2019-02-17T18:30:16.578Z,78.80
2019-02-17T18:32:45.590Z,79.20
2019-02-17T18:35:19.690Z,79.60
2019-02-17T18:37:44.658Z,80.70
2019-02-17T18:40:17.570Z,81.40
2019-02-17T18:42:46.934Z,81.80
2019-02-17T18:45:16.366Z,83.00
2019-02-17T18:47:44.932Z,83.10
2019-02-17T18:50:15.913Z,83.10
2019-02-17T18:52:44.451Z,83.70
2019-02-17T18:55:14.062Z,85.20
2019-02-17T18:57:49.377Z,85.70
2019-02-17T19:00:24.015Z,85.70
2019-02-17T19:02:52.618Z,86.00
2019-02-17T19:05:31.096Z,85.80
2019-02-17T19:07:51.434Z,86.10
2019-02-17T19:10:19.978Z,86.80
2019-02-17T19:12:48.607Z,87.10
2019-02-17T19:15:21.642Z,87.70
2019-02-17T19:17:50.200Z,87.70
2019-02-17T19:20:36.732Z,88.20
2019-02-17T19:23:05.274Z,88.30
2019-02-17T19:25:33.855Z,88.00
2019-02-17T19:28:03.744Z,87.80
2019-02-17T19:30:32.452Z,87.70
2019-02-17T19:33:00.926Z,87.60
2019-02-17T19:35:29.507Z,88.20
2019-02-17T19:37:58.107Z,88.50
2019-02-17T19:40:26.672Z,89.00
2019-02-17T19:42:55.215Z,89.60
2019-02-17T19:45:23.711Z,89.90
2019-02-17T19:47:52.255Z,90.10
2019-02-17T19:50:20.814Z,90.20
2019-02-17T19:52:49.455Z,90.50
2019-02-17T19:55:17.963Z,90.80
2019-02-17T19:57:46.502Z,90.90
2019-02-17T20:00:17.230Z,90.90
2019-02-17T20:02:56.210Z,91.00
2019-02-17T20:05:38.623Z,91.20
2019-02-17T20:08:07.220Z,91.50
2019-02-17T20:10:35.753Z,91.70
2019-02-17T20:13:04.331Z,91.80
2019-02-17T20:15:34.274Z,91.80
2019-02-17T20:18:02.763Z,92.10
2019-02-17T20:20:31.231Z,92.20
2019-02-17T20:22:59.791Z,92.50
2019-02-17T20:25:28.399Z,92.60
2019-02-17T20:27:56.972Z,92.60
2019-02-17T20:30:25.455Z,92.80
2019-02-17T20:32:53.961Z,92.80
2019-02-17T20:35:22.421Z,92.90
2019-02-17T20:37:51.007Z,93.00
2019-02-17T20:40:19.689Z,93.20
2019-02-17T20:42:48.235Z,93.20
2019-02-17T20:45:16.735Z,93.40
2019-02-17T20:47:45.273Z,93.60
2019-02-17T20:50:15.993Z,93.70
2019-02-17T20:52:44.595Z,93.90
2019-02-17T20:55:13.599Z,93.80
2019-02-17T20:57:42.239Z,93.70
2019-02-17T21:00:22.553Z,93.70
2019-02-17T21:02:50.976Z,93.90
2019-02-17T21:05:19.534Z,94.00
2019-02-17T21:07:48.093Z,93.90
2019-02-17T21:10:16.635Z,94.10
2019-02-17T21:12:45.289Z,94.00
2019-02-17T21:15:16.243Z,94.10
2019-02-17T21:17:44.846Z,94.10
2019-02-17T21:20:13.703Z,94.20
2019-02-17T21:22:42.267Z,94.40
2019-02-17T21:25:12.347Z,94.50
2019-02-17T21:27:40.886Z,94.50
2019-02-17T21:30:15.402Z,94.10
2019-02-17T21:32:43.951Z,93.90
2019-02-17T21:35:14.128Z,93.90
2019-02-17T21:37:42.758Z,94.00
2019-02-17T21:40:12.382Z,94.20
2019-02-17T21:42:40.870Z,94.40
2019-02-17T21:45:11.300Z,94.60
2019-02-17T21:47:39.875Z,94.90
2019-02-17T21:50:10.701Z,95.10
2019-02-17T21:52:41.652Z,95.20
2019-02-17T21:55:11.686Z,95.20
2019-02-17T21:57:40.223Z,95.20
2019-02-17T22:00:17.934Z,95.30
2019-02-17T22:02:46.511Z,95.40
2019-02-17T22:05:15.235Z,95.50
2019-02-17T22:07:43.763Z,95.70
2019-02-17T22:10:14.421Z,95.70
2019-02-17T22:12:43.094Z,95.60
2019-02-17T22:15:16.815Z,95.60
2019-02-17T22:17:45.318Z,95.60
2019-02-17T22:20:14.198Z,95.70
2019-02-17T22:22:42.678Z,95.70
2019-02-17T22:25:11.415Z,95.70
2019-02-17T22:27:39.878Z,95.70
2019-02-17T22:30:16.262Z,95.90
2019-02-17T22:32:44.831Z,96.00
2019-02-17T22:35:13.434Z,96.20
2019-02-17T22:37:42.073Z,96.30
2019-02-17T22:40:14.736Z,96.60
2019-02-17T22:42:43.306Z,96.50
2019-02-17T22:45:12.699Z,96.60
2019-02-17T22:47:41.171Z,96.70
2019-02-17T22:50:14.287Z,96.70
2019-02-17T22:52:44.165Z,96.70
2019-02-17T22:55:13.779Z,96.60
2019-02-17T22:57:42.379Z,96.70
2019-02-17T23:00:23.187Z,96.70
2019-02-17T23:02:51.732Z,96.60
2019-02-17T23:05:20.290Z,96.90
2019-02-17T23:07:48.785Z,96.90
2019-02-17T23:10:17.355Z,96.90
2019-02-17T23:12:45.824Z,96.80
2019-02-17T23:15:14.363Z,96.80
2019-02-17T23:17:42.919Z,96.70
2019-02-17T23:20:11.529Z,96.70
2019-02-17T23:22:40.164Z,96.70
2019-02-17T23:25:09.762Z,96.80
2019-02-17T23:27:38.265Z,96.90
2019-02-17T23:30:09.111Z,96.90
2019-02-17T23:32:37.603Z,96.80
2019-02-17T23:35:08.455Z,96.90
2019-02-17T23:37:36.950Z,97.10
2019-02-17T23:40:08.222Z,97.00
2019-02-17T23:42:36.796Z,97.00
2019-02-17T23:45:07.934Z,97.20
2019-02-17T23:47:36.461Z,97.00
2019-02-17T23:50:06.726Z,97.10
2019-02-17T23:52:35.307Z,97.20
2019-02-17T23:55:04.511Z,97.30
2019-02-17T23:57:33.074Z,97.30
